Beach Center, California
Current Conditions -  °F | °C
As of 7:58 PM on Tuesday 21 Oct 2014 (Local Time) from KSLI Reporting Station
Clear Clear  
Wind Chill: 67°   Ceiling: Unl
Heat Index: 67°   Visibility: 10mi
Dew Point: 60°   Wind: 5mph
Humidity: 79%   Direction: 270°W
Pressure: 29.86"   Gusts: NA
Location:  33.6784°N, 118.005°W
Report Text: KSLI 220258Z 27004KT 10SM CLR 20/16 A2986 RMK AO2A SLP114 T01960158 53008
Loading
Personal Weather Stations






























Interactive Weather Map
Tropical Storm Tracking
New forecast layout! Learn more

10-Day Weather Forecast

Advertisements
Track Severe Weather on mobile